^^
Grace C. Lehan Memorial Weather Station Historical Data
Daily Summary for May 25, 2022 Units:  Metric    English   Both
Daily Weekly Monthly Yearly
  High: Low: Average:
Temperature: 21.4 °C 9.2 °C 14.3 °C
Dew Point: 16.8 °C 8.1 °C 11.6 °C
Humidity: 95% 71% 85%
Wind Speed: 2.4km/h 0km/h 0.2km/h
Wind Gust: 17.7km/h - -
Wind- - SSW
Pressure: 1010.4 hPa 1001.6 hPa -
Precipitation: 0 mm    
 
 
Tabular Data for May 25, 2022
Time Temperature Dew Point Pressure Wind Wind Speed Wind Gust Humidity Rainfall Rate (Hourly) solar
00:04 11.1 °C 9.1 °C 1010.4 hPa Calm     87% 0 mm 0 W/m2
00:09 11.1 °C 8.9 °C 1010.4 hPa Calm     87% 0 mm 0 W/m2
00:14 10.9 °C 9.1 °C 1010.4 hPa Calm     87.9% 0 mm 0 W/m2
00:19 10.9 °C 9 °C 1010.4 hPa Calm     88% 0 mm 0 W/m2
00:24 10.8 °C 8.9 °C 1010.4 hPa Calm     88% 0 mm 0 W/m2
00:29 10.7 °C 8.8 °C 1010.4 hPa Calm     88% 0 mm 0 W/m2
00:34 10.7 °C 8.8 °C 1010.4 hPa Calm     88.5% 0 mm 0 W/m2
00:39 10.6 °C 8.9 °C 1010.4 hPa Calm     89% 0 mm 0 W/m2
00:44 10.6 °C 8.9 °C 1010.4 hPa Calm     89% 0 mm 0 W/m2
00:49 10.6 °C 8.9 °C 1010.4 hPa Calm     89.6% 0 mm 0 W/m2
00:54 10.6 °C 9 °C 1010.4 hPa Calm     90% 0 mm 0 W/m2
00:59 10.6 °C 9 °C 1010.4 hPa Calm     90% 0 mm 0 W/m2
01:04 10.5 °C 8.9 °C 1010.4 hPa Calm     90% 0 mm 0 W/m2
01:09 10.4 °C 8.9 °C 1010.4 hPa Calm     90% 0 mm 0 W/m2
01:14 10.4 °C 8.8 °C 1010.4 hPa Calm     90% 0 mm 0 W/m2
01:19 10.4 °C 8.8 °C 1010.4 hPa Calm     90% 0 mm 0 W/m2
01:24 10.3 °C 8.8 °C 1010.4 hPa Calm     90% 0 mm 0 W/m2
01:29 10.3 °C 8.7 °C 1010.4 hPa Calm     90% 0 mm 0 W/m2
01:34 10.2 °C 8.7 °C 1010.4 hPa Calm     90% 0 mm 0 W/m2
01:39 10.2 °C 8.6 °C 1010.4 hPa Calm     90% 0 mm 0 W/m2
01:44 10.1 °C 8.6 °C 1010.4 hPa Calm     90% 0 mm 0 W/m2
01:49 10.1 °C 8.5 °C 1010.4 hPa Calm     90% 0 mm 0 W/m2
01:54 10 °C 8.6 °C 1010.4 hPa Calm     90.8% 0 mm 0 W/m2
01:59 10 °C 8.6 °C 1010.4 hPa Calm     91% 0 mm 0 W/m2
02:04 9.9 °C 8.6 °C 1010.4 hPa Calm     91% 0 mm 0 W/m2
02:09 9.9 °C 8.5 °C 1010.4 hPa Calm     91% 0 mm 0 W/m2
02:14 9.8 °C 8.4 °C 1010.4 hPa Calm     91% 0 mm 0 W/m2
02:19 9.8 °C 8.4 °C 1010.4 hPa Calm     91% 0 mm 0 W/m2
02:24 9.7 °C 8.3 °C 1010 hPa Calm     91% 0 mm 0 W/m2
02:29 9.7 °C 8.3 °C 1010 hPa Calm     91% 0 mm 0 W/m2
02:34 9.7 °C 8.3 °C 1010 hPa Calm     91% 0 mm 0 W/m2
02:39 9.7 °C 8.4 °C 1010 hPa Calm     91.9% 0 mm 0 W/m2
02:44 9.7 °C 8.5 °C 1010 hPa Calm     92% 0 mm 0 W/m2
02:49 9.7 °C 8.5 °C 1010 hPa Calm     92% 0 mm 0 W/m2
02:54 9.7 °C 8.5 °C 1010 hPa Calm     92% 0 mm 0 W/m2
02:59 9.8 °C 8.6 °C 1010 hPa Calm     92% 0 mm 0 W/m2
03:04 9.8 °C 8.6 °C 1009.7 hPa Calm     92% 0 mm 0 W/m2
03:09 9.8 °C 8.6 °C 1009.7 hPa Calm     92% 0 mm 0 W/m2
03:14 9.8 °C 8.6 °C 1009.7 hPa Calm     92% 0 mm 0 W/m2
03:19 9.8 °C 8.6 °C 1009.7 hPa Calm     92% 0 mm 0 W/m2
03:24 9.8 °C 8.6 °C 1009.7 hPa Calm     92.2% 0 mm 0 W/m2
03:29 9.8 °C 8.8 °C 1009.7 hPa Calm     93% 0 mm 0 W/m2
03:34 9.9 °C 8.8 °C 1009.4 hPa Calm     93% 0 mm 0 W/m2
03:39 9.9 °C 8.9 °C 1009.4 hPa Calm     93% 0 mm 0 W/m2
03:44 9.9 °C 8.9 °C 1009.4 hPa Calm     93% 0 mm 0 W/m2
03:49 10 °C 8.9 °C 1009.4 hPa Calm     93% 0 mm 0 W/m2
03:54 10.1 °C 9 °C 1009.4 hPa Calm     93% 0 mm 0 W/m2
03:59 10.1 °C 9 °C 1009.4 hPa Calm     93% 0 mm 0 W/m2
04:04 10 °C 8.9 °C 1009 hPa Calm     93% 0 mm 0 W/m2
04:09 10 °C 8.9 °C 1009.4 hPa Calm     93% 0 mm 0 W/m2
04:14 9.9 °C 8.9 °C 1009 hPa Calm     93% 0 mm 0 W/m2
04:19 9.9 °C 8.9 °C 1009 hPa Calm     93% 0 mm 0 W/m2
04:24 10 °C 8.9 °C 1009 hPa Calm     93% 0 mm 0 W/m2
04:29 10 °C 8.9 °C 1009 hPa Calm     93% 0 mm 0 W/m2
04:34 10 °C 8.9 °C 1009 hPa Calm     93% 0 mm 0 W/m2
04:39 9.9 °C 8.9 °C 1009 hPa Calm     93% 0 mm 0 W/m2
04:44 9.9 °C 8.8 °C 1009 hPa Calm     93% 0 mm 0 W/m2
04:49 9.8 °C 8.8 °C 1009 hPa Calm     93% 0 mm 0 W/m2
04:54 9.8 °C 8.7 °C 1009.4 hPa Calm     93% 0 mm 0 W/m2
04:59 9.7 °C 8.7 °C 1009.4 hPa Calm     93% 0 mm 0 W/m2
05:04 9.7 °C 8.6 °C 1009.4 hPa Calm     93% 0 mm 0 W/m2
05:09 9.6 °C 8.6 °C 1009 hPa Calm     93% 0 mm 0 W/m2
05:14 9.6 °C 8.5 °C 1009 hPa Calm     93% 0 mm 0 W/m2
05:19 9.6 °C 8.5 °C 1009 hPa Calm     93% 0 mm 0 W/m2
05:24 9.6 °C 8.5 °C 1009 hPa Calm     93% 0 mm 0 W/m2
05:29 9.5 °C 8.4 °C 1009 hPa Calm     93% 0 mm 0 W/m2
05:34 9.4 °C 8.4 °C 1009 hPa Calm     93% 0 mm 0 W/m2
05:39 9.3 °C 8.3 °C 1009 hPa Calm     93% 0 mm 0 W/m2
05:44 9.3 °C 8.2 °C 1009 hPa Calm     93% 0 mm 0 W/m2
05:49 9.2 °C 8.2 °C 1009 hPa Calm     93% 0 mm 0 W/m2
05:54 9.2 °C 8.1 °C 1009 hPa Calm     93% 0 mm 0 W/m2
05:59 9.2 °C 8.1 °C 1009 hPa Calm     93% 0 mm 0 W/m2
06:04 9.2 °C 8.1 °C 1009 hPa Calm     93% 0 mm 0 W/m2
06:09 9.2 °C 8.2 °C 1009 hPa Calm     93% 0 mm 0 W/m2
06:14 9.2 °C 8.2 °C 1009 hPa Calm     93% 0 mm 0 W/m2
06:19 9.2 °C 8.1 °C 1009 hPa Calm     93% 0 mm 0 W/m2
06:24 9.2 °C 8.1 °C 1009 hPa Calm     93.1% 0 mm 0 W/m2
06:29 9.2 °C 8.3 °C 1009 hPa Calm     94% 0 mm 0 W/m2
06:34 9.2 °C 8.3 °C 1008.7 hPa Calm     94% 0 mm 0 W/m2
06:39 9.3 °C 8.4 °C 1008.7 hPa Calm     94% 0 mm 0 W/m2
06:44 9.4 °C 8.5 °C 1008.7 hPa Calm     94% 0 mm 0 W/m2
06:49 9.5 °C 8.6 °C 1008.7 hPa Calm     94% 0 mm 7 W/m2
06:54 9.6 °C 8.7 °C 1008.7 hPa Calm     94% 0 mm 11 W/m2
06:59 9.7 °C 8.8 °C 1008.7 hPa Calm     94.2% 0 mm 11 W/m2
07:04 9.7 °C 8.8 °C 1008.7 hPa Calm     94% 0 mm 11 W/m2
07:09 9.8 °C 8.9 °C 1008.7 hPa Calm     94% 0 mm 16 W/m2
07:14 9.9 °C 9 °C 1008.7 hPa Calm     94% 0 mm 19 W/m2
07:19 10 °C 9.2 °C 1008.7 hPa Calm     94.9% 0 mm 19 W/m2
07:24 10.1 °C 9.3 °C 1008.4 hPa Calm     95% 0 mm 23 W/m2
07:29 10.2 °C 9.3 °C 1008.4 hPa Calm     94.5% 0 mm 37 W/m2
07:34 10.2 °C 9.3 °C 1008.4 hPa Calm     94% 0 mm 47 W/m2
07:39 10.2 °C 9.3 °C 1008.4 hPa Calm     94% 0 mm 47 W/m2
07:44 10.2 °C 9.3 °C 1008.4 hPa Calm     94% 0 mm 47 W/m2
07:49 10.3 °C 9.3 °C 1008.4 hPa Calm     94% 0 mm 60 W/m2
07:54 10.3 °C 9.4 °C 1008.4 hPa Calm     94% 0 mm 67 W/m2
07:59 10.5 °C 9.6 °C 1008.4 hPa Calm     94% 0 mm 93 W/m2
08:00 10.6 °C 9.6 °C 1008 hPa Calm     94% 0 mm 93 W/m2
08:09 10.7 °C 9.8 °C 1008.4 hPa Calm     94% 0 mm 128 W/m2
08:14 10.9 °C 10 °C 1008.4 hPa Calm     94.1% 0 mm 135 W/m2
08:19 11.2 °C 10.4 °C 1008.4 hPa Calm     95% 0 mm 118 W/m2
08:24 11.4 °C 10.7 °C 1008 hPa Calm     95% 0 mm 88 W/m2
08:29 11.6 °C 10.7 °C 1008 hPa Calm     94.2% 0 mm 137 W/m2
08:34 11.8 °C 10.8 °C 1008 hPa Calm     94% 0 mm 130 W/m2
08:39 11.9 °C 11 °C 1008 hPa Calm     94% 0 mm 125 W/m2
08:44 12.1 °C 11.1 °C 1008 hPa Calm     93.4% 0 mm 148 W/m2
08:49 12.3 °C 11.2 °C 1008 hPa Calm     93% 0 mm 183 W/m2
08:54 12.5 °C 11.4 °C 1008 hPa Calm     92.9% 0 mm 211 W/m2
08:59 12.7 °C 11.4 °C 1007.7 hPa Calm     92% 0 mm 227 W/m2
09:04 12.9 °C 11.4 °C 1007.7 hPa Calm     91.2% 0 mm 329 W/m2
09:09 13.2 °C 11.7 °C 1007.7 hPa Calm     90.9% 0 mm 329 W/m2
09:14 13.3 °C 11.7 °C 1007.7 hPa Calm     89.4% 0 mm 156 W/m2
09:19 13.6 °C 11.8 °C 1007.7 hPa Calm     89% 0 mm 130 W/m2
09:24 13.8 °C 11.9 °C 1007.7 hPa Calm     88.3% 0 mm 130 W/m2
09:29 13.9 °C 11.8 °C 1007.7 hPa Calm     87% 0 mm 148 W/m2
09:34 14 °C 11.7 °C 1007.7 hPa Calm     86.1% 0 mm 199 W/m2
09:39 14.2 °C 11.7 °C 1007.7 hPa Calm     85.3% 0 mm 223 W/m2
09:44 14.3 °C 11.8 °C 1007.7 hPa Calm     85% 0 mm 251 W/m2
09:49 14.6 °C 12.1 °C 1007.7 hPa Calm     85% 0 mm 274 W/m2
09:54 14.8 °C 12.3 °C 1007.7 hPa Calm     84.8% 0 mm 452 W/m2
09:59 15.2 °C 12.7 °C 1007.7 hPa Calm     85% 0 mm 624 W/m2
10:04 15.7 °C 12.7 °C 1007.7 hPa Calm     82.7% 0 mm 367 W/m2
10:09 16.1 °C 12.8 °C 1007.3 hPa Calm     81.1% 0 mm 396 W/m2
10:14 16.3 °C 12.7 °C 1007.3 hPa Calm     78.9% 0 mm 304 W/m2
10:19 16.6 °C 13 °C 1007.3 hPa Calm     79% 0 mm 353 W/m2
10:24 16.9 °C 13.1 °C 1007.3 hPa Calm     78.1% 0 mm 253 W/m2
10:29 17.2 °C 13.2 °C 1007.3 hPa Calm     76.9% 0 mm 287 W/m2
10:34 17.4 °C 13.2 °C 1007.3 hPa Calm     76.3% 0 mm 360 W/m2
10:39 17.7 °C 13.5 °C 1007.3 hPa Calm     76.1% 0 mm 670 W/m2
10:44 18.2 °C 13.7 °C 1007.3 hPa Calm     75.4% 0 mm 378 W/m2
10:49 18.4 °C 13.8 °C 1007.3 hPa Calm     74.4% 0 mm 269 W/m2
10:54 18.4 °C 13.5 °C 1007 hPa Calm     73% 0 mm 357 W/m2
10:59 18.4 °C 13.3 °C 1007 hPa Calm     72.4% 0 mm 355 W/m2
11:04 18.3 °C 13.3 °C 1006.7 hPa Calm     72.4% 0 mm 357 W/m2
11:09 18.3 °C 13.4 °C 1006.7 hPa Calm     73.2% 0 mm 339 W/m2
11:14 18.4 °C 13.6 °C 1006.7 hPa Calm     73.6% 0 mm 443 W/m2
11:19 18.5 °C 13.7 °C 1006.7 hPa Calm     73.7% 0 mm 357 W/m2
11:24 18.7 °C 14 °C 1006.3 hPa Calm     74.3% 0 mm 362 W/m2
11:29 18.9 °C 14.3 °C 1006.3 hPa Calm     74.7% 0 mm 378 W/m2
11:34 19.1 °C 14.2 °C 1006.3 hPa Calm     73.4% 0 mm 339 W/m2
11:39 19.1 °C 13.9 °C 1006.3 hPa Calm     71.8% 0 mm 338 W/m2
11:44 19.1 °C 13.7 °C 1006.3 hPa Calm     71% 0 mm 302 W/m2
11:49 19.2 °C 14 °C 1006.3 hPa Calm     72% 0 mm 287 W/m2
11:54 19.2 °C 13.9 °C 1006 hPa WSW 0.6 km/h 4.8 km/h 71.5% 0 mm 253 W/m2
11:59 19.1 °C 13.9 °C 1006 hPa WSW 0.5 km/h 4.8 km/h 72% 0 mm 253 W/m2
12:00 19.1 °C 13.9 °C 1006 hPa Calm   4.8 km/h 72% 0 mm 251 W/m2
12:09 19.1 °C 13.9 °C 1006 hPa WSW 1 km/h 6.4 km/h 72.1% 0 mm 272 W/m2
12:14 19.1 °C 13.9 °C 1006 hPa SSW 0.5 km/h 6.4 km/h 71.8% 0 mm 274 W/m2
12:19 19.2 °C 13.9 °C 1006 hPa WSW 0.3 km/h 6.4 km/h 71.9% 0 mm 272 W/m2
12:24 19.2 °C 14.1 °C 1006 hPa West 0.2 km/h 6.4 km/h 72% 0 mm 306 W/m2
12:29 19.3 °C 14.2 °C 1006 hPa SW 0.6 km/h 6.4 km/h 72.3% 0 mm 323 W/m2
12:34 19.4 °C 14.1 °C 1005.6 hPa Calm   6.4 km/h 71.3% 0 mm 285 W/m2
12:39 19.5 °C 14.3 °C 1005.6 hPa Calm   1.6 km/h 71.7% 0 mm 253 W/m2
12:44 19.6 °C 14.2 °C 1005.6 hPa Calm   1.6 km/h 71% 0 mm 243 W/m2
12:49 19.7 °C 14.3 °C 1005.3 hPa Calm   1.6 km/h 71% 0 mm 229 W/m2
12:54 19.8 °C 14.3 °C 1005.3 hPa SSW 0.3 km/h 4.8 km/h 71% 0 mm 232 W/m2
12:59 19.8 °C 14.6 °C 1005.3 hPa West 0.6 km/h 8 km/h 71.8% 0 mm 230 W/m2
13:04 19.9 °C 14.7 °C 1005 hPa SW 0.2 km/h 8 km/h 71.9% 0 mm 229 W/m2
13:09 19.9 °C 14.6 °C 1005 hPa SW 0.2 km/h 3.2 km/h 71% 0 mm 216 W/m2
13:14 20 °C 14.6 °C 1005 hPa SW 0.2 km/h 3.2 km/h 71% 0 mm 234 W/m2
13:19 20 °C 14.8 °C 1004.6 hPa Calm   3.2 km/h 71.9% 0 mm 287 W/m2
13:24 20.1 °C 14.9 °C 1004.6 hPa South 0.6 km/h 3.2 km/h 72.2% 0 mm 288 W/m2
13:29 20.2 °C 15 °C 1004.6 hPa SSW 0.3 km/h 6.4 km/h 72% 0 mm 248 W/m2
13:34 20.3 °C 15.1 °C 1004.3 hPa SSW 0.6 km/h 6.4 km/h 72% 0 mm 251 W/m2
13:39 20.3 °C 15.2 °C 1004.3 hPa SSW 1.1 km/h 4.8 km/h 72% 0 mm 267 W/m2
13:44 20.4 °C 15.2 °C 1004.3 hPa SSW 0.3 km/h 6.4 km/h 72% 0 mm 267 W/m2
13:49 20.4 °C 15.2 °C 1004.3 hPa SSW 0.6 km/h 6.4 km/h 72% 0 mm 227 W/m2
13:54 20.4 °C 15.2 °C 1003.9 hPa SSW 0.6 km/h 6.4 km/h 72% 0 mm 214 W/m2
13:59 20.4 °C 15.4 °C 1003.9 hPa Calm   6.4 km/h 72.8% 0 mm 174 W/m2
14:04 20.4 °C 15.6 °C 1003.9 hPa SSW 0.2 km/h 6.4 km/h 73.8% 0 mm 151 W/m2
14:09 20.4 °C 15.4 °C 1003.9 hPa Calm   3.2 km/h 73% 0 mm 165 W/m2
14:14 20.4 °C 15.6 °C 1003.9 hPa Calm   3.2 km/h 73.7% 0 mm 162 W/m2
14:19 20.4 °C 15.7 °C 1003.9 hPa SSW 0.2 km/h 3.2 km/h 74.4% 0 mm 128 W/m2
14:24 20.4 °C 15.8 °C 1003.6 hPa SSW 0.2 km/h 3.2 km/h 75% 0 mm 165 W/m2
14:29 20.4 °C 16.1 °C 1003.6 hPa SSW 0.5 km/h 3.2 km/h 75.9% 0 mm 163 W/m2
14:34 20.5 °C 16.2 °C 1003.6 hPa SSW 0.5 km/h 4.8 km/h 76.3% 0 mm 153 W/m2
14:39 20.6 °C 16.4 °C 1003.6 hPa Calm   4.8 km/h 77.2% 0 mm 213 W/m2
14:44 20.7 °C 16.7 °C 1003.3 hPa SW 0.2 km/h 4.8 km/h 78% 0 mm 213 W/m2
14:49 20.7 °C 16.7 °C 1003.3 hPa SW 0.3 km/h 4.8 km/h 77.9% 0 mm 192 W/m2
14:54 20.7 °C 16.7 °C 1003.3 hPa SSW 0.2 km/h 4.8 km/h 77.5% 0 mm 185 W/m2
14:59 20.8 °C 16.7 °C 1003.3 hPa South 0.6 km/h 4.8 km/h 77.6% 0 mm 211 W/m2
15:04 20.8 °C 16.6 °C 1002.9 hPa SSE 0.8 km/h 6.4 km/h 77% 0 mm 292 W/m2
15:09 20.9 °C 16.7 °C 1002.9 hPa South 0.3 km/h 6.4 km/h 77% 0 mm 276 W/m2
15:14 21.1 °C 16.7 °C 1002.6 hPa South 0.2 km/h 6.4 km/h 76.3% 0 mm 178 W/m2
15:19 21.1 °C 16.7 °C 1002.6 hPa South 0.3 km/h 6.4 km/h 76% 0 mm 190 W/m2
15:24 21.2 °C 16.8 °C 1002.6 hPa Calm   6.4 km/h 76% 0 mm 216 W/m2
15:29 21.2 °C 16.8 °C 1002.6 hPa South 0.2 km/h 6.4 km/h 76% 0 mm 265 W/m2
15:34 21.2 °C 16.8 °C 1002.6 hPa Calm   6.4 km/h 76% 0 mm 148 W/m2
15:39 21.2 °C 16.7 °C 1002.6 hPa SSE 0.3 km/h 4.8 km/h 75.6% 0 mm 135 W/m2
15:44 21.2 °C 16.6 °C 1002.3 hPa SSE 0.5 km/h 4.8 km/h 75% 0 mm 193 W/m2
15:49 21.2 °C 16.6 °C 1002.3 hPa SSE 0.2 km/h 4.8 km/h 75% 0 mm 200 W/m2
15:54 21.2 °C 16.5 °C 1002.6 hPa South 0.6 km/h 6.4 km/h 74.4% 0 mm 123 W/m2
15:59 21.2 °C 16.2 °C 1002.6 hPa South 0.8 km/h 6.4 km/h 73% 0 mm 223 W/m2
16:09 21.3 °C 16 °C 1002.3 hPa SSW 1.4 km/h 8 km/h 72% 0 mm 139 W/m2
16:14 21.3 °C 16.1 °C 1001.9 hPa South 1.1 km/h 8 km/h 72% 0 mm 183 W/m2
16:19 21.3 °C 16.2 °C 1001.9 hPa South 0.2 km/h 8 km/h 72.4% 0 mm 134 W/m2
16:24 21.4 °C 16.3 °C 1001.9 hPa South 1 km/h 8 km/h 73% 0 mm 125 W/m2
16:29 21.4 °C 16.3 °C 1001.9 hPa South 0.3 km/h 8 km/h 73% 0 mm 137 W/m2
16:34 21.3 °C 16.3 °C 1001.9 hPa South 0.3 km/h 8 km/h 73% 0 mm 128 W/m2
16:39 21.3 °C 16.4 °C 1001.6 hPa SSW 0.8 km/h 6.4 km/h 73.6% 0 mm 128 W/m2
16:44 21.3 °C 16.5 °C 1001.6 hPa SSW 2.4 km/h 9.7 km/h 74% 0 mm 111 W/m2
16:49 21.3 °C 16.4 °C 1001.6 hPa South 1 km/h 9.7 km/h 74% 0 mm 83 W/m2
16:54 21.2 °C 16.6 °C 1001.9 hPa SSW 0.8 km/h 17.7 km/h 74.7% 0 mm 81 W/m2
16:58 21.2 °C 16.6 °C 1001.9 hPa Calm   17.7 km/h 75% 0 mm 90 W/m2
Hartford County Weather
Compliments of Weather Underground - 2 mb